Time;durP1;ratioP1;P1;durP2;ratioP2;P2;SDS_P1;SDS_P2;PMS_P1;PMS_P2;Temp;Humidity;BMP_temperature;BMP_pressure;BME280_temperature;BME280_humidity;BME280_pressure;Samples;Min_cycle;Max_cycle;Signal;HPM_P1;HPM_P2
2023/10/30 00:02:09;;;;;;;5.20;2.40;;;8.60;99.90;;;;;;4902157;29;20044;-85
2023/10/30 00:04:35;;;;;;;5.40;2.43;;;8.60;99.90;;;;;;4901277;29;20448;-86
2023/10/30 00:07:00;;;;;;;6.07;2.30;;;8.50;99.90;;;;;;4902139;29;20107;-85
2023/10/30 00:09:26;;;;;;;4.20;2.23;;;8.50;99.90;;;;;;4901940;29;20028;-86
2023/10/30 00:11:52;;;;;;;4.37;2.20;;;8.50;99.90;;;;;;4901640;29;20071;-86
2023/10/30 00:14:17;;;;;;;4.63;2.33;;;8.40;99.90;;;;;;4901543;29;20064;-86
2023/10/30 00:16:43;;;;;;;7.27;2.80;;;8.40;99.90;;;;;;4902973;29;20064;-85
2023/10/30 00:19:10;;;;;;;5.90;2.27;;;8.30;99.90;;;;;;4902804;29;20069;-86
2023/10/30 00:21:36;;;;;;;3.50;2.20;;;8.30;99.90;;;;;;4903353;29;20499;-85
2023/10/30 00:24:02;;;;;;;3.43;2.10;;;8.30;99.90;;;;;;4902160;29;20043;-86
2023/10/30 00:26:29;;;;;;;6.67;2.20;;;8.20;99.90;;;;;;4902413;29;20410;-86
2023/10/30 00:28:57;;;;;;;6.13;2.40;;;8.20;99.90;;;;;;4902451;29;20048;-85
2023/10/30 00:31:22;;;;;;;5.93;2.40;;;8.20;99.90;;;;;;4902061;29;20028;-86
2023/10/30 00:33:49;;;;;;;6.07;2.10;;;8.10;99.90;;;;;;4901750;29;20048;-86
2023/10/30 00:36:14;;;;;;;5.00;2.40;;;8.10;99.90;;;;;;4902274;29;20104;-85
2023/10/30 00:38:40;;;;;;;7.37;2.53;;;8.10;99.90;;;;;;4902547;29;20032;-86
2023/10/30 00:41:10;;;;;;;4.43;2.20;;;8.10;99.90;;;;;;4903002;29;20083;-86
2023/10/30 00:43:37;;;;;;;5.03;2.30;;;8.10;99.90;;;;;;4904039;29;20107;-86
2023/10/30 00:46:06;;;;;;;5.13;2.63;;;8.00;99.90;;;;;;4903321;29;20059;-86
2023/10/30 00:48:35;;;;;;;3.27;2.00;;;8.00;99.90;;;;;;4905024;29;20447;-86
2023/10/30 00:51:00;;;;;;;4.83;2.00;;;8.00;99.90;;;;;;4906101;29;20064;-86
2023/10/30 00:53:26;;;;;;;3.80;2.10;;;7.90;99.90;;;;;;4907761;29;20119;-86
2023/10/30 00:55:52;;;;;;;6.33;3.07;;;7.90;99.90;;;;;;4909309;29;20036;-86
2023/10/30 00:58:18;;;;;;;5.77;2.60;;;7.90;99.90;;;;;;4915969;29;20043;-86
2023/10/30 01:00:43;;;;;;;6.07;2.53;;;7.90;99.90;;;;;;4913512;29;20012;-88
2023/10/30 01:03:09;;;;;;;3.97;2.33;;;7.80;99.90;;;;;;4940093;29;20096;-87
2023/10/30 01:05:35;;;;;;;6.93;3.10;;;7.80;99.90;;;;;;4932066;29;20096;-88
2023/10/30 01:08:01;;;;;;;6.37;2.60;;;7.80;99.90;;;;;;4914575;29;20039;-86
2023/10/30 01:10:26;;;;;;;5.00;2.50;;;7.70;99.90;;;;;;4907933;29;20040;-86
2023/10/30 01:12:52;;;;;;;4.40;2.57;;;7.70;99.90;;;;;;4909532;29;20092;-86
2023/10/30 01:15:18;;;;;;;5.67;2.50;;;7.70;99.90;;;;;;4910348;29;20051;-85
2023/10/30 01:17:43;;;;;;;7.67;2.60;;;7.70;99.90;;;;;;4907946;29;20036;-86
2023/10/30 01:20:09;;;;;;;5.80;2.40;;;7.70;99.90;;;;;;4905778;29;20032;-85
2023/10/30 01:22:35;;;;;;;8.63;3.60;;;7.60;99.90;;;;;;4905609;29;20028;-85
2023/10/30 01:25:01;;;;;;;5.97;2.37;;;7.60;99.90;;;;;;4904346;29;20039;-86
2023/10/30 01:27:26;;;;;;;6.57;2.60;;;7.60;99.90;;;;;;4905976;29;20111;-85
2023/10/30 01:29:53;;;;;;;7.70;2.60;;;7.60;99.90;;;;;;4907521;29;20091;-85
2023/10/30 01:32:18;;;;;;;5.33;2.50;;;7.60;99.90;;;;;;4905733;29;20024;-85
2023/10/30 01:34:44;;;;;;;4.37;1.90;;;7.50;99.90;;;;;;4904983;29;20036;-86
2023/10/30 01:37:10;;;;;;;5.00;2.50;;;7.50;99.90;;;;;;4904594;29;20459;-86
2023/10/30 01:39:39;;;;;;;5.37;2.43;;;7.50;99.90;;;;;;4904371;29;20036;-86
2023/10/30 01:42:05;;;;;;;5.23;2.60;;;7.50;99.90;;;;;;4905154;29;20147;-87
2023/10/30 01:44:30;;;;;;;4.90;2.20;;;7.40;99.90;;;;;;4905193;29;20036;-85
2023/10/30 01:46:56;;;;;;;4.60;2.43;;;7.40;99.90;;;;;;4905549;29;20037;-85
2023/10/30 01:49:21;;;;;;;4.30;2.37;;;7.40;99.90;;;;;;4905525;29;20036;-86
2023/10/30 01:51:47;;;;;;;6.30;2.00;;;7.30;99.90;;;;;;4908219;29;20024;-86
2023/10/30 01:54:14;;;;;;;6.33;2.27;;;7.30;99.90;;;;;;4909499;29;20380;-85
2023/10/30 01:56:40;;;;;;;5.03;2.33;;;7.30;99.90;;;;;;4911276;29;20029;-85
2023/10/30 01:59:07;;;;;;;4.03;2.13;;;7.20;99.90;;;;;;4906981;29;20115;-85
2023/10/30 02:01:35;;;;;;;4.77;2.27;;;7.20;99.90;;;;;;4908631;29;20028;-85
2023/10/30 02:04:00;;;;;;;4.50;2.63;;;7.20;99.90;;;;;;4905022;29;20066;-85
2023/10/30 02:06:26;;;;;;;8.47;2.90;;;7.20;99.90;;;;;;4905127;29;20514;-86
2023/10/30 02:08:52;;;;;;;3.47;2.40;;;7.10;99.90;;;;;;4903182;29;20067;-85
2023/10/30 02:11:17;;;;;;;6.40;2.50;;;7.10;99.90;;;;;;4904362;29;20052;-86
2023/10/30 02:13:52;;;;;;;5.53;2.40;;;7.10;99.90;;;;;;4904468;29;20391;-86
2023/10/30 02:16:18;;;;;;;4.15;2.35;;;7.10;99.90;;;;;;4904089;29;20118;-86
2023/10/30 02:18:43;;;;;;;5.60;2.47;;;7.00;99.90;;;;;;4904404;29;20339;-86
2023/10/30 02:21:11;;;;;;;3.97;2.43;;;7.00;99.90;;;;;;4904593;29;21485;-86
2023/10/30 02:23:37;;;;;;;6.47;2.53;;;6.90;99.90;;;;;;4904498;29;21556;-86
2023/10/30 02:26:02;;;;;;;6.47;2.63;;;6.90;99.90;;;;;;4903662;29;20040;-86
2023/10/30 02:28:28;;;;;;;5.67;2.40;;;6.90;99.90;;;;;;4903441;29;20059;-86
2023/10/30 02:30:53;;;;;;;3.77;2.40;;;6.90;99.90;;;;;;4903630;29;20024;-86
2023/10/30 02:33:19;;;;;;;6.20;2.47;;;6.90;99.90;;;;;;4902971;29;20091;-86
2023/10/30 02:35:44;;;;;;;5.30;2.57;;;6.80;99.90;;;;;;4902884;29;20526;-86
2023/10/30 02:38:10;;;;;;;8.77;2.60;;;6.80;99.90;;;;;;4904227;29;20766;-86
2023/10/30 02:40:36;;;;;;;5.60;2.60;;;6.80;99.90;;;;;;4904632;29;20028;-86
2023/10/30 02:43:02;;;;;;;6.17;2.70;;;6.80;99.90;;;;;;4903903;29;20024;-87
2023/10/30 02:45:28;;;;;;;5.67;2.60;;;6.80;99.90;;;;;;4903844;29;20033;-85
2023/10/30 02:47:53;;;;;;;3.20;2.33;;;6.70;99.90;;;;;;4904460;29;20096;-86
2023/10/30 02:50:19;;;;;;;3.87;2.73;;;6.70;99.90;;;;;;4904155;29;20035;-85
2023/10/30 02:52:44;;;;;;;4.13;2.60;;;6.70;99.90;;;;;;4904088;29;20032;-86
2023/10/30 02:55:10;;;;;;;3.57;2.50;;;6.70;99.90;;;;;;4902438;29;20076;-86
2023/10/30 02:57:36;;;;;;;9.63;2.50;;;6.70;99.90;;;;;;4904591;29;20020;-86
2023/10/30 03:00:02;;;;;;;4.10;2.13;;;6.60;99.90;;;;;;4904282;29;20036;-85
2023/10/30 03:02:27;;;;;;;4.13;2.30;;;6.60;99.90;;;;;;4902627;29;20044;-85
2023/10/30 03:04:53;;;;;;;3.40;2.20;;;6.60;99.90;;;;;;4903647;29;20036;-86
2023/10/30 03:07:18;;;;;;;4.03;2.43;;;6.60;99.90;;;;;;4903970;29;20024;-86
2023/10/30 03:09:44;;;;;;;3.87;2.60;;;6.60;99.90;;;;;;4904560;29;20423;-86
2023/10/30 03:12:11;;;;;;;6.27;2.40;;;6.60;99.90;;;;;;4903536;29;20162;-87
2023/10/30 03:14:36;;;;;;;3.77;2.37;;;6.60;99.90;;;;;;4902967;29;20107;-86
2023/10/30 03:17:02;;;;;;;4.13;2.50;;;6.60;99.90;;;;;;4903071;29;20035;-87
2023/10/30 03:19:28;;;;;;;7.07;2.60;;;6.60;99.90;;;;;;4903474;29;20076;-87
2023/10/30 03:21:53;;;;;;;4.00;1.93;;;6.60;99.90;;;;;;4904001;29;20116;-85
2023/10/30 03:24:19;;;;;;;4.83;2.60;;;6.60;99.90;;;;;;4904135;29;20040;-86
2023/10/30 03:26:44;;;;;;;3.37;2.43;;;6.60;99.90;;;;;;4903079;29;20407;-86
2023/10/30 03:29:10;;;;;;;5.53;2.50;;;6.60;99.90;;;;;;4903159;29;20043;-86
2023/10/30 03:31:35;;;;;;;3.97;2.30;;;6.60;99.90;;;;;;4903763;29;20095;-85
2023/10/30 03:34:01;;;;;;;7.00;2.30;;;6.60;99.90;;;;;;4903106;29;20581;-86
2023/10/30 03:36:29;;;;;;;4.03;2.47;;;6.60;99.90;;;;;;4902791;29;20032;-85
2023/10/30 03:38:54;;;;;;;5.73;2.50;;;6.60;99.90;;;;;;4904080;29;20069;-86
2023/10/30 03:41:20;;;;;;;5.50;2.33;;;6.60;99.90;;;;;;4906929;29;21358;-86
2023/10/30 03:43:45;;;;;;;7.27;2.60;;;6.60;99.90;;;;;;4911921;29;20036;-85
2023/10/30 03:46:11;;;;;;;3.63;2.27;;;6.60;99.90;;;;;;4911476;29;20047;-85
2023/10/30 03:48:37;;;;;;;4.13;2.47;;;6.60;99.90;;;;;;4909585;29;20037;-86
2023/10/30 03:51:05;;;;;;;4.27;2.17;;;6.50;99.90;;;;;;4910768;29;20035;-87
2023/10/30 03:53:31;;;;;;;9.83;2.93;;;6.50;99.90;;;;;;4912462;29;20032;-86
2023/10/30 03:55:56;;;;;;;4.50;2.80;;;6.50;99.90;;;;;;4920867;29;20057;-89
2023/10/30 03:58:22;;;;;;;3.57;2.50;;;6.50;99.90;;;;;;4939503;29;20012;-88
2023/10/30 04:00:48;;;;;;;5.40;2.43;;;6.40;99.90;;;;;;4931697;29;20087;-88
2023/10/30 04:03:13;;;;;;;5.13;2.60;;;6.40;99.90;;;;;;4922582;29;20380;-85
2023/10/30 04:05:39;;;;;;;5.27;2.60;;;6.40;99.90;;;;;;4907098;29;20158;-86
2023/10/30 04:08:05;;;;;;;7.77;2.70;;;6.40;99.90;;;;;;4906631;29;20040;-86
2023/10/30 04:10:31;;;;;;;4.63;2.67;;;6.40;99.90;;;;;;4903311;29;20036;-86
2023/10/30 04:12:57;;;;;;;4.63;2.73;;;6.40;99.90;;;;;;4910652;29;20059;-86
2023/10/30 04:15:22;;;;;;;3.93;2.80;;;6.40;99.90;;;;;;4899967;29;20047;-86
2023/10/30 04:17:48;;;;;;;5.23;2.47;;;6.40;99.90;;;;;;4901989;29;20047;-85
2023/10/30 04:20:14;;;;;;;4.73;2.20;;;6.40;99.90;;;;;;4902313;29;20024;-86
2023/10/30 04:22:39;;;;;;;5.90;2.30;;;6.30;99.90;;;;;;4901705;29;20079;-85
2023/10/30 04:25:06;;;;;;;2.83;2.30;;;6.20;99.90;;;;;;4901134;29;20091;-86
2023/10/30 04:27:33;;;;;;;4.30;2.50;;;6.20;99.90;;;;;;4902113;29;20440;-85
2023/10/30 04:29:59;;;;;;;6.73;2.70;;;6.10;99.90;;;;;;4903406;29;20082;-86
2023/10/30 04:32:24;;;;;;;4.40;2.73;;;6.10;99.90;;;;;;4906643;29;20455;-87
2023/10/30 04:34:50;;;;;;;7.83;3.13;;;6.10;99.90;;;;;;4909923;29;21342;-86
2023/10/30 04:37:18;;;;;;;5.27;3.63;;;6.10;99.90;;;;;;4911904;29;20100;-85
2023/10/30 04:39:43;;;;;;;5.70;3.97;;;6.20;99.90;;;;;;4909987;29;20040;-86
2023/10/30 04:42:09;;;;;;;5.37;3.97;;;6.20;99.90;;;;;;4906814;29;20108;-86
2023/10/30 04:44:35;;;;;;;7.10;4.13;;;6.30;99.90;;;;;;4906311;29;20028;-87
2023/10/30 04:47:00;;;;;;;7.00;4.53;;;6.30;99.90;;;;;;4906966;29;20698;-85
2023/10/30 04:49:26;;;;;;;6.20;3.93;;;6.40;99.90;;;;;;4907064;29;20024;-86
2023/10/30 04:51:51;;;;;;;8.20;4.53;;;6.40;99.90;;;;;;4905758;29;20032;-86
2023/10/30 04:54:17;;;;;;;7.03;4.70;;;6.40;99.90;;;;;;4905510;29;20047;-87
2023/10/30 04:56:42;;;;;;;7.37;4.80;;;6.40;99.90;;;;;;4905265;29;20111;-86
2023/10/30 04:59:08;;;;;;;7.37;5.20;;;6.40;99.90;;;;;;4906271;29;20488;-86
2023/10/30 05:01:33;;;;;;;5.73;4.23;;;6.40;99.90;;;;;;4905047;29;20087;-86
2023/10/30 05:04:01;;;;;;;9.60;4.60;;;6.40;99.90;;;;;;4905098;29;20043;-87
2023/10/30 05:06:27;;;;;;;6.90;4.93;;;6.40;99.90;;;;;;4904300;29;20478;-86
2023/10/30 05:08:53;;;;;;;10.40;5.20;;;6.50;99.90;;;;;;4905571;29;20035;-86
2023/10/30 05:11:18;;;;;;;7.37;5.00;;;6.50;99.90;;;;;;4903080;29;20952;-86
2023/10/30 05:13:44;;;;;;;8.50;5.17;;;6.50;99.90;;;;;;4902571;29;20048;-85
2023/10/30 05:16:09;;;;;;;7.37;5.97;;;6.50;99.90;;;;;;4902211;29;21089;-86
2023/10/30 05:18:35;;;;;;;8.70;5.23;;;6.60;99.90;;;;;;4903990;29;20035;-85
2023/10/30 05:21:01;;;;;;;9.47;5.50;;;6.60;99.90;;;;;;4903240;29;20044;-85
2023/10/30 05:23:27;;;;;;;12.23;5.20;;;6.60;99.90;;;;;;4907183;29;20047;-85
2023/10/30 05:25:53;;;;;;;11.33;7.70;;;6.60;99.90;;;;;;4904466;29;20058;-85
2023/10/30 05:28:18;;;;;;;13.00;6.70;;;6.60;99.90;;;;;;4903965;29;20029;-86
2023/10/30 05:30:44;;;;;;;9.37;6.93;;;6.60;99.90;;;;;;4904070;29;20503;-86
2023/10/30 05:33:09;;;;;;;11.47;7.40;;;6.60;99.90;;;;;;4904352;29;20086;-85
2023/10/30 05:35:35;;;;;;;9.17;6.80;;;6.70;99.90;;;;;;4902913;29;20090;-86
2023/10/30 05:38:02;;;;;;;11.97;8.83;;;6.70;99.90;;;;;;4904050;29;20081;-86
2023/10/30 05:40:27;;;;;;;18.20;11.50;;;6.70;99.90;;;;;;4903133;29;20048;-85
2023/10/30 05:42:53;;;;;;;12.87;9.03;;;6.70;99.90;;;;;;4903907;29;20685;-85
2023/10/30 05:45:18;;;;;;;14.17;8.93;;;6.70;99.90;;;;;;4903463;29;20036;-85
2023/10/30 05:47:44;;;;;;;16.37;12.20;;;6.70;99.90;;;;;;4904275;29;20041;-86
2023/10/30 05:50:09;;;;;;;15.17;9.87;;;6.70;99.90;;;;;;4886316;29;20088;-86
2023/10/30 05:52:35;;;;;;;15.47;9.97;;;6.70;99.90;;;;;;4901898;29;20024;-87
2023/10/30 05:55:02;;;;;;;8.70;7.53;;;6.70;99.90;;;;;;4899639;29;20028;-87
2023/10/30 05:57:28;;;;;;;9.43;5.70;;;6.70;99.90;;;;;;4903680;29;20126;-87
2023/10/30 05:59:59;;;;;;;9.00;6.80;;;6.60;99.90;;;;;;4887438;29;20491;-88
2023/10/30 06:02:25;;;;;;;11.33;5.77;;;6.60;99.90;;;;;;4905586;29;20051;-90
2023/10/30 06:04:50;;;;;;;17.20;6.20;;;6.50;99.90;;;;;;4901837;29;20060;-88
2023/10/30 06:07:16;;;;;;;8.50;4.57;;;6.50;99.90;;;;;;4903081;29;20087;-88
2023/10/30 06:09:43;;;;;;;6.03;4.20;;;6.40;99.90;;;;;;4900555;29;20063;-87
2023/10/30 06:12:09;;;;;;;8.90;4.70;;;6.40;99.90;;;;;;4903414;29;20036;-87
2023/10/30 06:14:35;;;;;;;8.83;5.20;;;6.40;99.90;;;;;;4901997;29;20038;-88
2023/10/30 06:17:01;;;;;;;10.47;6.00;;;6.40;99.90;;;;;;4900778;29;20036;-88
2023/10/30 06:19:28;;;;;;;8.13;4.53;;;6.40;99.90;;;;;;4904312;29;20032;-92
2023/10/30 06:21:54;;;;;;;7.90;4.80;;;6.30;99.90;;;;;;4904303;29;20055;-88
2023/10/30 06:24:20;;;;;;;8.37;5.60;;;6.30;99.90;;;;;;4888005;29;20543;-89
2023/10/30 06:26:45;;;;;;;7.00;5.30;;;6.30;99.90;;;;;;4902887;29;20028;-88
2023/10/30 06:29:11;;;;;;;8.40;5.47;;;6.30;99.90;;;;;;4903467;29;20772;-89
2023/10/30 06:31:36;;;;;;;11.77;5.70;;;6.30;99.90;;;;;;4905970;29;20036;-90
2023/10/30 06:34:02;;;;;;;11.27;5.70;;;6.30;99.90;;;;;;4906867;29;20377;-88
2023/10/30 06:36:28;;;;;;;9.27;5.40;;;6.30;99.90;;;;;;4906148;29;20092;-90
2023/10/30 06:38:55;;;;;;;10.83;5.40;;;6.30;99.90;;;;;;4907150;29;20060;-93
2023/10/30 06:41:21;;;;;;;11.17;5.33;;;6.30;99.90;;;;;;4912667;29;20084;-89
2023/10/30 06:43:47;;;;;;;8.70;4.50;;;6.30;99.90;;;;;;4919306;29;20036;-89
2023/10/30 06:46:12;;;;;;;10.83;4.73;;;6.30;99.90;;;;;;4919283;29;20028;-87
2023/10/30 06:48:38;;;;;;;8.57;4.63;;;6.30;99.90;;;;;;4919085;29;20028;-88
2023/10/30 06:51:04;;;;;;;8.10;4.70;;;6.40;99.90;;;;;;4920726;29;20024;-88
2023/10/30 06:53:30;;;;;;;9.07;5.13;;;6.40;99.90;;;;;;4933443;29;20075;-93
2023/10/30 06:55:56;;;;;;;8.63;4.47;;;6.40;99.90;;;;;;4936005;29;20024;-89
2023/10/30 06:58:21;;;;;;;7.03;4.60;;;6.50;99.90;;;;;;4938128;29;20027;-87
2023/10/30 07:00:47;;;;;;;8.87;5.13;;;6.50;99.90;;;;;;4908809;29;20066;-89
2023/10/30 07:03:12;;;;;;;11.73;5.63;;;6.60;99.90;;;;;;4897628;29;20067;-88
2023/10/30 07:05:38;;;;;;;11.43;6.67;;;6.60;99.90;;;;;;4898097;29;20075;-87
2023/10/30 07:08:04;;;;;;;10.40;5.90;;;6.70;99.90;;;;;;4895144;29;20029;-89
2023/10/30 07:10:30;;;;;;;5.80;4.33;;;6.70;99.90;;;;;;4893435;29;20260;-89
2023/10/30 07:12:56;;;;;;;9.80;4.90;;;6.80;99.90;;;;;;4897581;29;20781;-90
2023/10/30 07:15:21;;;;;;;7.93;5.03;;;6.80;99.90;;;;;;4894883;29;20513;-91
2023/10/30 07:17:47;;;;;;;9.27;5.70;;;6.90;99.90;;;;;;4894865;29;20036;-90
2023/10/30 07:20:13;;;;;;;7.47;5.73;;;6.90;99.90;;;;;;4896312;29;20111;-90
2023/10/30 07:22:39;;;;;;;11.87;6.00;;;7.00;99.90;;;;;;4894806;29;20040;-90
2023/10/30 07:25:06;;;;;;;10.47;6.60;;;7.00;99.90;;;;;;4894951;29;20100;-87
2023/10/30 07:27:33;;;;;;;8.53;6.80;;;7.10;99.90;;;;;;4896398;29;20110;-88
2023/10/30 07:29:59;;;;;;;11.07;7.13;;;7.20;99.90;;;;;;4894431;29;20693;-89
2023/10/30 07:32:24;;;;;;;10.13;7.70;;;7.20;99.90;;;;;;4897146;29;20036;-91
2023/10/30 07:34:50;;;;;;;9.57;6.53;;;7.30;99.90;;;;;;4899589;29;21116;-88
2023/10/30 07:37:15;;;;;;;19.47;11.13;;;7.40;99.90;;;;;;4901303;29;20207;-93
2023/10/30 07:39:41;;;;;;;12.57;7.43;;;7.50;99.90;;;;;;4896898;29;21049;-90
2023/10/30 07:42:07;;;;;;;9.57;7.20;;;7.60;99.90;;;;;;4892398;29;20036;-88
2023/10/30 07:44:32;;;;;;;11.93;6.57;;;7.70;99.90;;;;;;4876407;29;20036;-89
2023/10/30 07:46:58;;;;;;;10.00;6.60;;;7.70;99.90;;;;;;4894502;29;20171;-91
2023/10/30 07:49:24;;;;;;;9.70;6.20;;;7.90;99.90;;;;;;4895371;29;20064;-91
2023/10/30 07:51:49;;;;;;;11.70;7.10;;;7.90;99.90;;;;;;4892275;29;20060;-92
2023/10/30 07:54:15;;;;;;;9.60;6.70;;;8.00;99.90;;;;;;4897557;29;20500;-89
2023/10/30 07:56:40;;;;;;;11.27;6.03;;;8.20;99.90;;;;;;4901199;29;20271;-91
2023/10/30 07:59:06;;;;;;;11.80;7.20;;;8.30;99.90;;;;;;4904446;29;20043;-88
2023/10/30 08:01:35;;;;;;;8.00;5.90;;;8.40;99.90;;;;;;4893380;29;20032;-90
2023/10/30 08:04:01;;;;;;;9.17;6.10;;;8.60;99.90;;;;;;4893546;29;20044;-88
2023/10/30 08:06:27;;;;;;;14.87;6.67;;;8.70;99.90;;;;;;4895098;29;20040;-89
2023/10/30 08:08:53;;;;;;;14.20;6.53;;;8.90;99.90;;;;;;4895539;29;20134;-89
2023/10/30 08:11:19;;;;;;;10.20;7.30;;;9.00;99.90;;;;;;4892827;29;20032;-89
2023/10/30 08:13:44;;;;;;;12.40;7.90;;;9.20;99.90;;;;;;4893959;29;20451;-88
2023/10/30 08:16:10;;;;;;;16.73;8.20;;;9.30;99.90;;;;;;4895652;29;20028;-93
2023/10/30 08:18:39;;;;;;;14.83;8.43;;;9.40;99.90;;;;;;4894386;29;20032;-89
2023/10/30 08:21:07;;;;;;;18.47;9.30;;;9.60;99.90;;;;;;4893908;29;20024;-90
2023/10/30 08:23:34;;;;;;;12.63;8.27;;;9.70;99.90;;;;;;4893623;29;20768;-89
2023/10/30 08:25:59;;;;;;;11.70;6.73;;;9.90;99.90;;;;;;4895606;29;20095;-89
2023/10/30 08:28:25;;;;;;;10.77;6.40;;;10.10;99.90;;;;;;4895696;29;20111;-91
2023/10/30 08:30:50;;;;;;;11.23;6.57;;;10.30;99.90;;;;;;4893671;29;20053;-88
2023/10/30 08:33:17;;;;;;;11.67;7.57;;;10.50;99.90;;;;;;4877119;29;20032;-92
2023/10/30 08:35:46;;;;;;;13.45;6.25;;;10.70;99.90;;;;;;4894095;29;20116;-90
2023/10/30 08:38:12;;;;;;;9.77;5.82;;;10.90;99.90;;;;;;4895763;29;20032;-88
2023/10/30 08:40:39;;;;;;;8.38;5.20;;;11.10;99.90;;;;;;4893720;29;20048;-89
2023/10/30 08:43:04;;;;;;;9.25;5.47;;;11.30;99.90;;;;;;4892968;29;20067;-91
2023/10/30 08:45:30;;;;;;;9.60;5.22;;;11.40;99.90;;;;;;4894134;29;20171;-89
2023/10/30 08:47:55;;;;;;;6.85;4.82;;;11.50;99.90;;;;;;4893698;29;20115;-88
2023/10/30 08:50:21;;;;;;;7.20;4.68;;;11.70;99.90;;;;;;4893627;29;20048;-91
2023/10/30 08:52:46;;;;;;;9.60;4.53;;;11.90;99.90;;;;;;4892332;29;20152;-92
2023/10/30 08:55:12;;;;;;;11.40;4.80;;;11.90;99.90;;;;;;4893625;29;20087;-88
2023/10/30 08:57:38;;;;;;;7.53;4.30;;;12.00;99.90;;;;;;4895726;29;20139;-89
2023/10/30 09:00:07;;;;;;;6.05;4.05;;;12.10;99.90;;;;;;4893631;29;20103;-88
2023/10/30 09:02:36;;;;;;;5.53;4.00;;;12.30;99.90;;;;;;4889716;29;20103;-89
2023/10/30 09:05:03;;;;;;;8.10;3.92;;;12.40;99.90;;;;;;4893199;29;20183;-88
2023/10/30 09:07:29;;;;;;;9.07;4.63;;;12.50;99.90;;;;;;4895515;29;20096;-89
2023/10/30 09:09:55;;;;;;;9.90;5.03;;;12.60;99.90;;;;;;4894234;29;20055;-90
2023/10/30 09:12:21;;;;;;;8.20;4.30;;;12.70;99.90;;;;;;4894744;29;20024;-91
2023/10/30 09:14:46;;;;;;;7.07;3.75;;;12.80;99.90;;;;;;4895090;29;20043;-89
2023/10/30 09:17:12;;;;;;;8.60;4.13;;;12.90;99.90;;;;;;4896721;29;20035;-90
2023/10/30 09:19:38;;;;;;;8.38;3.67;;;13.00;99.90;;;;;;4897044;29;20567;-86
2023/10/30 09:22:04;;;;;;;6.88;3.50;;;13.10;99.90;;;;;;4896229;29;20821;-87
2023/10/30 09:24:30;;;;;;;7.40;3.22;;;13.20;99.90;;;;;;4895003;29;20054;-87
2023/10/30 09:26:56;;;;;;;9.40;2.97;;;13.30;99.90;;;;;;4898302;29;20122;-86
2023/10/30 09:29:21;;;;;;;6.68;3.55;;;13.30;99.90;;;;;;4897663;29;20048;-88
2023/10/30 09:31:49;;;;;;;8.95;3.58;;;13.40;99.90;;;;;;4896382;29;20163;-86
2023/10/30 09:34:15;;;;;;;24.50;17.38;;;13.50;99.90;;;;;;4898735;29;20036;-87
2023/10/30 09:36:41;;;;;;;9.07;4.03;;;13.60;99.90;;;;;;4898281;29;20024;-89
2023/10/30 09:39:07;;;;;;;5.45;3.20;;;13.70;99.90;;;;;;4901589;29;20040;-86
2023/10/30 09:41:39;;;;;;;17.90;10.52;;;13.70;99.90;;;;;;4900121;29;20403;-88
2023/10/30 09:44:08;;;;;;;17.40;9.63;;;13.80;99.90;;;;;;4904911;29;20029;-87
2023/10/30 09:46:34;;;;;;;10.25;5.40;;;13.90;99.90;;;;;;4907441;29;20171;-87
2023/10/30 09:49:00;;;;;;;16.20;10.27;;;14.00;99.90;;;;;;4918111;29;20091;-88
2023/10/30 09:51:26;;;;;;;8.98;5.40;;;14.00;99.90;;;;;;4933670;29;20121;-88
2023/10/30 09:53:56;;;;;;;10.25;7.38;;;14.00;99.90;;;;;;4935470;29;20033;-90
2023/10/30 09:56:25;;;;;;;17.98;12.32;;;14.10;99.90;;;;;;4916516;29;20047;-87
2023/10/30 09:58:51;;;;;;;13.23;7.32;;;14.00;99.90;;;;;;4900346;29;20499;-87
2023/10/30 10:01:18;;;;;;;19.35;14.18;;;14.10;99.90;;;;;;4898885;29;20080;-88
2023/10/30 10:03:44;;;;;;;23.55;15.93;;;14.20;99.90;;;;;;4903209;29;20060;-87
2023/10/30 10:06:14;;;;;;;11.32;7.78;;;14.30;99.90;;;;;;4902916;29;20068;-89
2023/10/30 10:08:42;;;;;;;97.57;75.15;;;14.30;99.90;;;;;;4902702;29;20063;-87
2023/10/30 10:11:08;;;;;;;7.53;4.28;;;14.40;99.90;;;;;;4900645;29;20035;-90
2023/10/30 10:13:37;;;;;;;48.22;36.10;;;14.50;99.90;;;;;;4900186;29;20028;-86
2023/10/30 10:16:03;;;;;;;8.50;5.43;;;14.60;99.90;;;;;;4903284;29;20051;-87
2023/10/30 10:18:31;;;;;;;19.40;13.60;;;14.70;99.90;;;;;;4900354;29;20037;-87
2023/10/30 10:21:03;;;;;;;7.40;5.80;;;14.80;99.90;;;;;;4901499;29;20067;-87
2023/10/30 10:23:31;;;;;;;11.50;6.07;;;14.70;99.90;;;;;;4899270;29;20510;-88
2023/10/30 10:25:58;;;;;;;5.57;3.35;;;14.80;99.90;;;;;;4902154;29;20046;-87
2023/10/30 10:28:25;;;;;;;5.65;2.42;;;14.90;99.90;;;;;;4898684;29;20103;-88
2023/10/30 10:30:53;;;;;;;5.85;2.40;;;14.90;99.90;;;;;;4900720;29;20072;-89
2023/10/30 10:33:24;;;;;;;5.10;2.40;;;14.80;99.90;;;;;;4900663;29;20147;-88
2023/10/30 10:35:57;;;;;;;6.55;2.33;;;14.80;99.90;;;;;;4900808;29;20035;-90
2023/10/30 10:38:24;;;;;;;5.95;2.72;;;14.90;99.90;;;;;;4902101;29;20047;-88
2023/10/30 10:40:53;;;;;;;11.48;2.42;;;15.00;99.90;;;;;;4902687;29;20040;-89
2023/10/30 10:43:20;;;;;;;5.55;2.28;;;15.00;99.90;;;;;;4901701;29;20058;-88
2023/10/30 10:45:53;;;;;;;7.88;2.35;;;15.00;99.90;;;;;;4900656;29;20032;-89
2023/10/30 10:48:21;;;;;;;4.65;2.05;;;15.00;99.90;;;;;;4901326;29;20147;-89
2023/10/30 10:50:50;;;;;;;7.70;1.92;;;15.00;99.90;;;;;;4898359;29;20040;-89
2023/10/30 10:53:20;;;;;;;4.78;2.00;;;15.00;99.90;;;;;;4900385;29;20032;-89
2023/10/30 10:55:50;;;;;;;3.95;2.28;;;15.10;99.90;;;;;;4902114;29;20035;-89
2023/10/30 10:58:20;;;;;;;6.30;1.88;;;15.10;99.90;;;;;;4900968;29;20123;-89
2023/10/30 11:00:51;;;;;;;6.93;2.20;;;15.10;99.90;;;;;;4901003;29;20976;-89
2023/10/30 11:03:18;;;;;;;4.47;1.92;;;15.20;99.90;;;;;;4900486;29;20046;-89
2023/10/30 11:05:46;;;;;;;4.20;2.00;;;15.20;99.90;;;;;;4900386;29;20067;-88
2023/10/30 11:08:52;;;;;;;4.13;1.95;;;15.30;99.90;;;;;;4901872;29;20403;-89
2023/10/30 11:11:23;;;;;;;7.25;2.08;;;15.30;99.90;;;;;;4901493;29;20115;-89
2023/10/30 11:14:04;;;;;;;5.15;2.45;;;15.40;99.90;;;;;;4901286;29;20521;-88
2023/10/30 11:16:52;;;;;;;5.88;1.95;;;15.50;99.90;;;;;;4900997;29;20035;-89
2023/10/30 11:19:19;;;;;;;3.05;1.80;;;15.50;99.90;;;;;;4902619;29;20035;-88
2023/10/30 11:21:50;;;;;;;3.88;1.40;;;15.50;99.90;;;;;;4901349;29;20052;-88
2023/10/30 11:24:35;;;;;;;3.95;1.70;;;15.50;99.90;;;;;;4900819;29;20110;-88
2023/10/30 11:27:00;;;;;;;3.60;1.70;;;15.50;99.90;;;;;;4902051;29;20096;-88
2023/10/30 11:29:57;;;;;;;3.47;1.73;;;15.50;99.90;;;;;;4906206;29;20028;-87
2023/10/30 11:32:29;;;;;;;7.85;2.25;;;15.50;99.90;;;;;;4906689;29;21672;-88
2023/10/30 11:34:55;;;;;;;5.40;1.90;;;15.50;99.90;;;;;;4902007;29;20027;-88
2023/10/30 11:37:21;;;;;;;5.85;1.98;;;15.50;99.90;;;;;;4900234;29;20124;-88
2023/10/30 11:39:49;;;;;;;3.00;1.75;;;15.40;99.90;;;;;;4901399;29;20032;-88
2023/10/30 11:42:24;;;;;;;5.28;1.67;;;15.40;99.90;;;;;;4901754;29;20170;-88
2023/10/30 11:44:51;;;;;;;5.72;1.90;;;15.40;99.90;;;;;;4901403;29;20171;-88
2023/10/30 11:47:21;;;;;;;6.82;1.83;;;15.40;99.90;;;;;;4902932;29;20033;-89
2023/10/30 11:49:46;;;;;;;6.40;2.45;;;15.40;99.90;;;;;;4901041;29;20036;-91
2023/10/30 11:52:13;;;;;;;12.93;2.10;;;15.40;99.90;;;;;;4902779;29;20047;-89
2023/10/30 11:54:44;;;;;;;5.32;2.10;;;15.40;99.90;;;;;;4902672;29;20657;-89
2023/10/30 11:57:10;;;;;;;6.18;2.00;;;15.40;99.90;;;;;;4902607;29;20039;-89
2023/10/30 11:59:36;;;;;;;8.38;1.95;;;15.40;99.90;;;;;;4902773;29;20031;-89
2023/10/30 12:02:04;;;;;;;6.60;1.75;;;15.40;99.90;;;;;;4902546;29;20590;-89
2023/10/30 12:04:32;;;;;;;12.70;6.05;;;15.40;99.90;;;;;;4902725;29;20166;-89
2023/10/30 12:06:58;;;;;;;5.43;2.45;;;15.40;99.90;;;;;;4899576;29;20043;-89
2023/10/30 12:09:25;;;;;;;3.97;1.83;;;15.40;99.90;;;;;;4902926;29;20059;-89
2023/10/30 12:11:51;;;;;;;10.98;1.83;;;15.40;99.90;;;;;;4902298;29;20044;-89
2023/10/30 12:14:20;;;;;;;3.90;1.88;;;15.40;99.90;;;;;;4902434;29;20024;-89
2023/10/30 12:16:47;;;;;;;6.75;2.00;;;15.30;99.90;;;;;;4902979;29;20036;-89
2023/10/30 12:19:13;;;;;;;4.32;1.70;;;15.30;99.90;;;;;;4901502;29;20036;-89
2023/10/30 12:21:39;;;;;;;5.53;1.75;;;15.30;99.90;;;;;;4901079;29;20028;-90
2023/10/30 12:24:05;;;;;;;4.25;1.90;;;15.20;99.90;;;;;;4903121;29;20043;-91
2023/10/30 12:26:33;;;;;;;3.35;1.75;;;15.20;99.90;;;;;;4901160;29;20168;-91
2023/10/30 12:29:00;;;;;;;8.73;1.70;;;15.20;99.90;;;;;;4885444;29;20071;-89
2023/10/30 12:31:29;;;;;;;6.95;2.00;;;15.10;99.90;;;;;;4900139;29;20043;-89
2023/10/30 12:34:22;;;;;;;6.80;1.80;;;15.10;99.90;;;;;;4896208;29;20140;-89
2023/10/30 12:36:47;;;;;;;12.55;1.80;;;15.00;99.90;;;;;;4893968;29;20044;-89
2023/10/30 12:39:21;;;;;;;3.00;1.75;;;15.00;99.90;;;;;;4894492;29;20028;-90
2023/10/30 12:41:56;;;;;;;12.00;2.35;;;15.00;99.90;;;;;;4892862;29;20032;-90
2023/10/30 12:44:29;;;;;;;7.30;2.13;;;15.00;99.90;;;;;;4894066;29;20070;-89
2023/10/30 12:46:54;;;;;;;6.15;2.25;;;14.90;99.90;;;;;;4910019;29;20040;-94
2023/10/30 12:49:20;;;;;;;6.18;2.22;;;14.80;99.90;;;;;;4934634;29;20043;-92